createdAt,value
2019-02-27T00:05:17.302Z,99406.05
2019-02-27T00:08:06.090Z,99398.11
2019-02-27T00:10:54.919Z,99400.10
2019-02-27T00:13:44.122Z,99396.34
2019-02-27T00:19:31.105Z,99387.87
2019-02-27T00:22:28.125Z,99386.88
2019-02-27T00:25:16.943Z,99124.77
2019-02-27T00:28:05.749Z,99385.73
2019-02-27T00:30:54.555Z,99111.97
2019-02-27T00:33:43.353Z,99388.67
2019-02-27T00:36:32.164Z,99407.37
2019-02-27T00:39:20.969Z,99380.43
2019-02-27T00:42:09.785Z,99379.29
2019-02-27T00:44:58.578Z,99379.12
2019-02-27T00:47:47.390Z,99118.64
2019-02-27T00:50:29.432Z,99380.98
2019-02-27T00:53:18.248Z,99372.80
2019-02-27T00:56:07.048Z,99376.87
2019-02-27T00:58:59.885Z,99347.66
2019-02-27T01:01:47.517Z,99374.88
2019-02-27T01:04:36.956Z,99101.73
2019-02-27T01:07:25.771Z,99372.48
2019-02-27T01:10:14.643Z,99365.83
2019-02-27T01:13:03.465Z,99370.31
2019-02-27T01:15:52.274Z,99362.88
2019-02-27T01:18:41.078Z,99088.28
2019-02-27T01:21:29.881Z,99370.17
2019-02-27T01:24:18.724Z,99365.87
2019-02-27T01:27:07.519Z,99353.83
2019-02-27T01:29:56.332Z,99350.08
2019-02-27T01:32:45.124Z,99343.88
2019-02-27T01:35:33.949Z,99345.72
2019-02-27T01:38:22.741Z,99343.83
2019-02-27T01:41:11.561Z,99341.55
2019-02-27T01:44:00.359Z,99335.53
2019-02-27T01:46:49.179Z,99327.83
2019-02-27T01:49:37.988Z,99335.05
2019-02-27T01:52:19.331Z,99328.42
2019-02-27T01:55:08.185Z,99322.84
2019-02-27T01:57:57.059Z,99328.06
2019-02-27T02:00:45.950Z,99323.50
2019-02-27T02:06:44.138Z,99325.13
2019-02-27T02:09:55.242Z,99322.95
2019-02-27T02:16:38.886Z,99046.64
2019-02-27T02:19:48.852Z,99315.48
2019-02-27T02:23:00.050Z,99308.45
2019-02-27T02:26:09.789Z,99300.47
2019-02-27T02:29:37.279Z,99054.05
2019-02-27T02:33:04.796Z,99018.94
2019-02-27T02:36:32.310Z,99286.02
2019-02-27T02:39:59.818Z,99290.06
2019-02-27T02:43:27.311Z,99205.36
2019-02-27T02:46:54.826Z,99281.84
2019-02-27T02:50:04.580Z,99282.25
2019-02-27T02:53:04.655Z,99276.66
2019-02-27T02:56:32.144Z,99269.63
2019-02-27T03:00:00.919Z,99261.69
2019-02-27T03:03:10.846Z,99062.41
2019-02-27T03:06:38.351Z,99169.58
2019-02-27T03:09:48.086Z,99248.45
2019-02-27T03:12:57.848Z,98996.70
2019-02-27T03:16:25.354Z,99105.71
2019-02-27T03:19:52.847Z,98991.77
2019-02-27T03:23:20.376Z,99231.47
2019-02-27T03:26:30.073Z,99228.62
2019-02-27T03:29:39.806Z,99225.33
2019-02-27T03:32:49.580Z,99225.46
2019-02-27T03:36:17.138Z,99226.76
2019-02-27T03:39:44.631Z,99224.27
2019-02-27T03:42:54.402Z,99223.95
2019-02-27T03:46:06.272Z,99223.81
2019-02-27T03:49:15.620Z,99222.67
2019-02-27T03:52:23.501Z,99223.62
2019-02-27T03:55:51.014Z,99225.34
2019-02-27T03:59:05.515Z,98969.61
2019-02-27T04:02:12.191Z,99220.08
2019-02-27T04:05:21.987Z,99149.70
2019-02-27T04:08:31.751Z,99214.63
2019-02-27T04:11:20.595Z,98946.09
2019-02-27T04:14:30.385Z,99212.24
2019-02-27T04:17:40.104Z,99207.55
2019-02-27T04:20:28.929Z,99204.77
2019-02-27T04:23:17.759Z,99204.11
2019-02-27T04:26:06.760Z,99030.62
2019-02-27T04:28:57.097Z,99205.45
2019-02-27T04:31:45.911Z,99206.70
2019-02-27T04:34:34.735Z,99205.54
2019-02-27T04:37:23.538Z,99052.92
2019-02-27T04:40:12.342Z,99209.83
2019-02-27T04:43:01.154Z,99212.67
2019-02-27T04:45:49.963Z,99208.67
2019-02-27T04:48:38.810Z,99210.28
2019-02-27T04:51:27.609Z,99211.95
2019-02-27T04:54:09.314Z,99206.20
2019-02-27T04:56:58.194Z,99010.80
2019-02-27T04:59:47.009Z,99203.47
2019-02-27T05:02:35.836Z,99204.18
2019-02-27T05:05:24.623Z,98930.11
2019-02-27T05:08:13.443Z,99202.91
2019-02-27T05:11:02.247Z,98909.20
2019-02-27T05:16:47.193Z,98922.05
2019-02-27T05:19:37.251Z,99194.16
2019-02-27T05:22:26.782Z,99197.00
2019-02-27T05:25:16.775Z,98877.26
2019-02-27T05:28:05.595Z,99190.60
2019-02-27T05:30:54.386Z,98875.71
2019-02-27T05:33:43.210Z,99185.20
2019-02-27T05:36:32.398Z,98926.31
2019-02-27T05:39:22.552Z,99182.19
2019-02-27T05:42:13.124Z,99183.23
2019-02-27T05:45:01.908Z,99184.87
2019-02-27T05:47:50.727Z,98904.63
2019-02-27T05:50:39.536Z,99184.66
2019-02-27T05:53:22.109Z,99179.15
2019-02-27T05:56:09.797Z,99174.95
2019-02-27T05:58:58.625Z,99178.59
2019-02-27T06:01:47.421Z,99180.56
2019-02-27T06:04:36.241Z,99173.23
2019-02-27T06:07:25.068Z,99172.33
2019-02-27T06:10:34.786Z,99167.48
2019-02-27T06:13:23.656Z,98875.84
2019-02-27T06:16:12.450Z,99161.10
2019-02-27T06:19:01.280Z,99169.44
2019-02-27T06:21:50.089Z,99169.69
2019-02-27T06:24:38.905Z,98901.73
2019-02-27T06:27:27.727Z,99159.98
2019-02-27T06:30:35.852Z,99155.54
2019-02-27T06:33:24.685Z,99161.16
2019-02-27T06:36:13.482Z,98873.59
2019-02-27T06:41:56.813Z,99157.37
2019-02-27T06:44:45.631Z,99159.44
2019-02-27T06:47:35.543Z,99156.14
2019-02-27T06:50:25.489Z,99158.44
2019-02-27T06:53:08.551Z,99159.12
2019-02-27T06:55:57.365Z,99164.53
2019-02-27T06:58:47.616Z,99164.34
2019-02-27T07:01:36.975Z,99160.59
2019-02-27T07:04:26.891Z,99156.60
2019-02-27T07:07:16.318Z,99151.95
2019-02-27T07:10:26.022Z,98920.45
2019-02-27T07:13:14.858Z,99156.74
2019-02-27T07:16:03.718Z,98867.28
2019-02-27T07:18:52.533Z,99038.59
2019-02-27T07:21:41.365Z,99153.05
2019-02-27T07:24:30.586Z,99148.30
2019-02-27T07:27:20.675Z,99140.11
2019-02-27T07:30:28.823Z,99135.78
2019-02-27T07:33:17.632Z,99136.21
2019-02-27T07:36:06.435Z,99139.25
2019-02-27T07:38:57.480Z,99149.56
2019-02-27T07:41:45.765Z,99150.52
2019-02-27T07:44:35.136Z,99143.23
2019-02-27T07:50:33.326Z,99133.95
2019-02-27T07:53:17.651Z,99140.75
2019-02-27T07:56:06.095Z,98873.73
2019-02-27T07:58:54.884Z,98871.03
2019-02-27T08:01:44.267Z,99131.38
2019-02-27T08:04:34.222Z,99132.26
2019-02-27T08:07:23.038Z,98949.80
2019-02-27T08:10:31.171Z,99125.30
2019-02-27T08:13:19.989Z,99117.16
2019-02-27T08:16:08.824Z,99119.42
2019-02-27T08:18:57.623Z,99112.38
2019-02-27T08:21:46.429Z,99110.59
2019-02-27T08:27:29.360Z,99120.31
2019-02-27T08:30:37.502Z,98886.49
2019-02-27T08:33:26.301Z,99130.28
2019-02-27T08:36:15.124Z,99128.06
2019-02-27T08:42:18.755Z,98837.23
2019-02-27T08:45:28.479Z,99114.03
2019-02-27T08:48:18.069Z,98891.64
2019-02-27T08:51:08.835Z,99102.06
2019-02-27T08:53:51.546Z,99105.81
2019-02-27T08:56:40.795Z,99107.88
2019-02-27T08:59:29.622Z,99105.50
2019-02-27T09:02:18.438Z,99029.06
2019-02-27T09:05:28.139Z,99099.69
2019-02-27T09:08:16.962Z,99098.95
2019-02-27T09:11:06.806Z,99096.65
2019-02-27T09:13:56.284Z,99096.39
2019-02-27T09:16:45.098Z,98932.77
2019-02-27T09:19:33.896Z,99091.11
2019-02-27T09:22:22.725Z,99088.59
2019-02-27T09:25:31.688Z,99082.86
2019-02-27T09:28:20.478Z,99073.08
2019-02-27T09:31:09.276Z,99074.22
2019-02-27T09:33:58.470Z,99070.20
2019-02-27T09:36:49.111Z,98829.34
2019-02-27T09:39:37.799Z,99066.39
2019-02-27T09:42:26.596Z,99061.41
2019-02-27T09:45:35.524Z,99001.15
2019-02-27T09:48:25.738Z,99051.66
2019-02-27T09:51:14.554Z,99045.08
2019-02-27T09:54:03.369Z,99035.41
2019-02-27T09:56:52.184Z,99029.58
2019-02-27T09:59:40.992Z,99033.70
2019-02-27T10:02:48.837Z,99040.21
2019-02-27T10:12:00.641Z,98813.56
2019-02-27T10:14:50.267Z,99035.27
2019-02-27T10:17:41.146Z,99031.41
2019-02-27T10:20:30.641Z,99025.31
2019-02-27T10:23:19.446Z,99042.02
2019-02-27T10:26:08.273Z,99017.05
2019-02-27T10:28:57.364Z,99010.14
2019-02-27T10:31:46.159Z,99000.57
2019-02-27T10:34:36.263Z,98993.95
2019-02-27T10:37:25.540Z,98844.76
2019-02-27T10:40:35.332Z,98989.77
2019-02-27T10:43:24.157Z,98984.85
2019-02-27T10:46:06.023Z,98980.79
2019-02-27T10:48:55.396Z,98977.01
2019-02-27T10:51:45.399Z,98784.27
2019-02-27T10:54:34.229Z,98973.55
2019-02-27T10:57:23.037Z,98968.42
2019-02-27T11:00:50.681Z,98794.95
2019-02-27T11:04:00.486Z,98958.66
2019-02-27T11:06:49.052Z,98949.54
2019-02-27T11:09:38.309Z,98947.61
2019-02-27T11:12:29.422Z,98930.66
2019-02-27T11:15:41.377Z,98956.72
2019-02-27T11:18:30.413Z,98948.55
2019-02-27T11:21:19.234Z,98946.85
2019-02-27T11:24:08.337Z,98822.08
2019-02-27T11:26:57.207Z,98932.64
2019-02-27T11:29:46.038Z,98911.63
2019-02-27T11:32:34.855Z,98926.41
2019-02-27T11:35:25.100Z,98707.21
2019-02-27T11:38:14.201Z,98912.13
2019-02-27T11:41:03.040Z,98904.67
2019-02-27T11:43:52.777Z,98895.41
2019-02-27T11:46:38.197Z,98828.50
2019-02-27T11:49:25.787Z,98883.14
2019-02-27T11:52:14.679Z,98878.58
2019-02-27T11:58:18.299Z,98878.23
2019-02-27T12:04:03.083Z,98846.66
2019-02-27T12:06:51.891Z,98865.76
2019-02-27T12:09:40.728Z,98851.63
2019-02-27T12:12:29.524Z,98845.09
2019-02-27T12:15:43.339Z,98834.33
2019-02-27T12:18:32.212Z,98828.34
2019-02-27T12:21:20.337Z,98827.55
2019-02-27T12:24:09.165Z,98820.48
2019-02-27T12:26:57.965Z,98817.39
2019-02-27T12:30:05.819Z,98815.53
2019-02-27T12:32:56.712Z,98815.84
2019-02-27T12:35:45.177Z,98809.29
2019-02-27T12:38:34.247Z,98801.03
2019-02-27T12:41:23.068Z,98612.80
2019-02-27T12:44:11.890Z,98680.79
2019-02-27T12:46:53.235Z,98781.70
2019-02-27T12:49:42.050Z,98786.98
2019-02-27T12:52:30.868Z,98731.73
2019-02-27T12:58:35.242Z,98579.32
2019-02-27T13:01:24.090Z,98754.83
2019-02-27T13:04:16.075Z,98753.88
2019-02-27T13:07:03.405Z,98547.44
2019-02-27T13:09:52.233Z,98747.48
2019-02-27T13:12:41.038Z,98634.75
2019-02-27T13:15:30.437Z,98741.77
2019-02-27T13:18:19.231Z,98740.03
2019-02-27T13:21:08.056Z,98726.21
2019-02-27T13:23:56.867Z,98721.44
2019-02-27T13:26:45.691Z,98721.77
2019-02-27T13:29:34.809Z,98522.86
2019-02-27T13:32:26.426Z,98708.90
2019-02-27T13:35:14.315Z,98700.41
2019-02-27T13:38:03.117Z,98700.29
2019-02-27T13:40:51.941Z,98699.12
2019-02-27T13:43:33.400Z,98527.75
2019-02-27T13:46:22.753Z,98696.84
2019-02-27T13:49:13.904Z,98686.59
2019-02-27T13:52:03.299Z,98542.27
2019-02-27T13:54:52.131Z,98636.05
2019-02-27T13:57:40.950Z,98677.09
2019-02-27T14:00:53.579Z,98670.02
2019-02-27T14:03:41.242Z,98663.55
2019-02-27T14:06:30.088Z,98652.56
2019-02-27T14:09:19.362Z,98644.59
2019-02-27T14:12:08.231Z,98637.48
2019-02-27T14:14:57.062Z,98633.56
2019-02-27T14:17:45.936Z,98627.12
2019-02-27T14:20:34.768Z,98618.58
2019-02-27T14:23:24.134Z,98621.89
2019-02-27T14:26:12.966Z,98616.23
2019-02-27T14:29:01.781Z,98608.22
2019-02-27T14:31:50.612Z,98437.98
2019-02-27T14:34:39.437Z,98623.78
2019-02-27T14:37:28.243Z,98617.00
2019-02-27T14:40:41.107Z,98620.03
2019-02-27T14:43:28.513Z,98619.35
2019-02-27T14:46:11.525Z,98590.20
2019-02-27T14:52:08.749Z,98447.02
2019-02-27T14:54:59.973Z,98600.88
2019-02-27T14:57:51.102Z,98598.70
2019-02-27T15:00:40.934Z,98590.22
2019-02-27T15:03:30.186Z,98587.72
2019-02-27T15:06:00.960Z,98439.96
2019-02-27T15:08:57.702Z,98577.02
2019-02-27T15:11:40.314Z,98400.25
2019-02-27T15:14:31.056Z,98566.56
2019-02-27T15:17:20.278Z,98387.96
2019-02-27T15:20:31.152Z,98559.80
2019-02-27T15:23:19.951Z,98379.34
2019-02-27T15:26:08.771Z,98551.11
2019-02-27T15:28:57.579Z,98548.92
2019-02-27T15:31:46.404Z,98542.03
2019-02-27T15:34:35.244Z,98537.81
2019-02-27T15:37:24.052Z,98538.45
2019-02-27T15:40:33.780Z,98423.17
2019-02-27T15:43:22.581Z,98530.35
2019-02-27T15:46:04.281Z,98532.06
2019-02-27T15:52:21.499Z,98523.31
2019-02-27T15:58:39.413Z,98521.42
2019-02-27T16:01:29.010Z,98518.14
2019-02-27T16:04:21.150Z,98514.84
2019-02-27T16:07:11.174Z,98515.92
2019-02-27T16:09:59.834Z,98509.42
2019-02-27T16:12:48.654Z,98505.88
2019-02-27T16:15:56.483Z,98497.23
2019-02-27T16:18:45.304Z,98503.12
2019-02-27T16:21:34.124Z,98496.05
2019-02-27T16:24:22.926Z,98261.72
2019-02-27T16:27:11.751Z,98488.78
2019-02-27T16:30:00.552Z,98487.68
2019-02-27T16:32:50.022Z,98455.54
2019-02-27T16:35:32.586Z,98483.38
2019-02-27T16:38:21.405Z,98303.61
2019-02-27T16:41:10.289Z,98475.59
2019-02-27T16:43:59.093Z,98472.66
2019-02-27T16:46:44.764Z,98475.60
2019-02-27T16:49:31.681Z,98443.81
2019-02-27T16:52:20.501Z,98468.42
2019-02-27T16:55:28.902Z,98280.72
2019-02-27T16:58:17.725Z,98472.35
2019-02-27T17:01:29.579Z,98468.99
2019-02-27T17:04:17.995Z,98470.47
2019-02-27T17:07:26.578Z,98466.23
2019-02-27T17:10:37.354Z,98472.26
2019-02-27T17:13:26.158Z,98258.86
2019-02-27T17:16:15.029Z,98215.81
2019-02-27T17:19:03.870Z,98466.32
2019-02-27T17:21:52.686Z,98232.73
2019-02-27T17:27:50.952Z,98461.75
2019-02-27T17:30:39.776Z,98460.92
2019-02-27T17:33:28.633Z,98374.47
2019-02-27T17:36:17.445Z,98465.05
2019-02-27T17:39:06.856Z,98460.56
2019-02-27T17:41:55.655Z,98459.72
2019-02-27T17:44:44.482Z,98459.66
2019-02-27T17:47:28.535Z,98455.91
2019-02-27T17:53:31.751Z,98448.47
2019-02-27T17:56:20.546Z,98445.08
2019-02-27T17:59:09.538Z,98443.47
2019-02-27T18:01:58.846Z,98447.78
2019-02-27T18:04:53.034Z,98447.53
2019-02-27T18:07:40.270Z,98440.67
2019-02-27T18:10:30.349Z,98270.41
2019-02-27T18:16:18.303Z,98426.80
2019-02-27T18:22:14.873Z,98418.47
2019-02-27T18:28:32.944Z,98408.61
2019-02-27T18:34:30.457Z,98299.84
2019-02-27T18:37:19.792Z,98376.47
2019-02-27T18:40:02.349Z,98180.66
2019-02-27T18:42:55.330Z,98400.23
2019-02-27T18:45:41.702Z,98371.70
2019-02-27T18:48:30.534Z,98399.80
2019-02-27T18:51:19.341Z,98398.61
2019-02-27T18:54:08.161Z,98398.62
2019-02-27T18:56:57.559Z,98381.53
2019-02-27T18:59:46.364Z,98384.80
2019-02-27T19:02:35.198Z,98374.02
2019-02-27T19:05:23.995Z,98373.98
2019-02-27T19:08:12.820Z,98364.56
2019-02-27T19:11:01.623Z,98364.62
2019-02-27T19:13:50.455Z,98365.98
2019-02-27T19:16:39.584Z,98361.31
2019-02-27T19:19:28.426Z,98361.36
2019-02-27T19:25:24.984Z,98127.08
2019-02-27T19:28:13.857Z,98354.72
2019-02-27T19:31:02.670Z,98351.34
2019-02-27T19:33:51.518Z,98353.08
2019-02-27T19:36:33.399Z,98349.23
2019-02-27T19:39:22.592Z,98210.26
2019-02-27T19:42:13.224Z,98348.52
2019-02-27T19:45:04.202Z,98340.84
2019-02-27T19:47:55.771Z,98302.49
2019-02-27T19:50:46.358Z,98337.95
2019-02-27T19:56:43.157Z,98330.34
2019-02-27T19:59:31.998Z,98327.38
2019-02-27T20:02:21.605Z,98328.23
2019-02-27T20:05:11.447Z,98080.32
2019-02-27T20:08:02.378Z,98319.67
2019-02-27T20:14:02.591Z,98321.77
2019-02-27T20:16:54.874Z,98322.16
2019-02-27T20:19:42.297Z,98315.67
2019-02-27T20:22:31.199Z,98060.91
2019-02-27T20:25:14.141Z,98303.81
2019-02-27T20:28:02.995Z,98302.55
2019-02-27T20:30:51.883Z,98093.83
2019-02-27T20:33:40.695Z,98060.38
2019-02-27T20:36:32.419Z,98300.33
2019-02-27T20:39:23.085Z,98289.27
2019-02-27T20:42:13.223Z,98148.39
2019-02-27T20:45:01.177Z,98285.87
2019-02-27T20:51:18.451Z,98057.54
2019-02-27T20:54:07.242Z,98282.03
2019-02-27T20:56:56.070Z,98284.13
2019-02-27T20:59:44.855Z,98285.36
2019-02-27T21:02:33.738Z,98277.20
2019-02-27T21:05:22.907Z,98276.77
2019-02-27T21:08:11.722Z,98277.97
2019-02-27T21:11:00.554Z,98271.57
2019-02-27T21:13:50.212Z,98274.55
2019-02-27T21:19:33.884Z,98263.41
2019-02-27T21:22:25.252Z,98256.13
2019-02-27T21:25:33.292Z,98251.00
2019-02-27T21:28:22.108Z,98247.55
2019-02-27T21:31:10.912Z,97967.13
2019-02-27T21:33:59.728Z,98242.42
2019-02-27T21:36:39.622Z,98012.30
2019-02-27T21:39:28.489Z,98236.73
2019-02-27T21:45:25.003Z,98233.52
2019-02-27T21:48:13.825Z,97936.77
2019-02-27T21:51:02.656Z,98226.89
2019-02-27T21:53:51.481Z,98225.06
2019-02-27T21:56:40.293Z,98071.57
2019-02-27T21:59:29.093Z,98225.08
2019-02-27T22:02:17.908Z,98226.92
2019-02-27T22:05:27.623Z,98220.67
2019-02-27T22:08:16.429Z,98217.80
2019-02-27T22:11:05.230Z,97945.86
2019-02-27T22:14:13.069Z,98212.98
2019-02-27T22:17:05.029Z,98210.40
2019-02-27T22:22:41.552Z,98212.37
2019-02-27T22:25:31.201Z,98207.23
2019-02-27T22:31:30.154Z,98125.41
2019-02-27T22:34:18.951Z,98193.91
2019-02-27T22:37:07.762Z,98115.78
2019-02-27T22:39:56.579Z,98187.62
2019-02-27T22:42:48.126Z,98184.10
2019-02-27T22:45:40.092Z,98175.53
2019-02-27T22:48:28.673Z,98142.98
2019-02-27T22:51:16.994Z,97904.22
2019-02-27T22:54:05.805Z,98172.81
2019-02-27T22:56:54.619Z,98162.63
2019-02-27T22:59:43.425Z,98160.34
2019-02-27T23:02:32.310Z,98060.13
2019-02-27T23:05:21.183Z,98149.60
2019-02-27T23:08:10.066Z,98151.16
2019-02-27T23:10:58.940Z,98151.72
2019-02-27T23:14:07.657Z,98139.89
2019-02-27T23:16:56.527Z,98135.25
2019-02-27T23:19:46.842Z,98128.58
2019-02-27T23:22:28.895Z,98127.36
2019-02-27T23:25:18.446Z,97990.29
2019-02-27T23:28:07.243Z,98118.45
2019-02-27T23:30:56.059Z,97864.11
2019-02-27T23:33:44.857Z,98117.83
2019-02-27T23:36:34.005Z,97847.56
2019-02-27T23:39:22.804Z,98115.77
2019-02-27T23:42:11.932Z,98115.64
2019-02-27T23:45:00.753Z,98119.15
2019-02-27T23:47:49.642Z,97852.71
2019-02-27T23:50:38.446Z,98110.68
2019-02-27T23:53:27.819Z,98027.80
2019-02-27T23:56:20.321Z,98105.72
2019-02-27T23:59:08.324Z,98107.78
